Terminal Aerodrome Forecast
Issued by NWS Tulsa, OK

Home | Current Version | Previous Version | Text Only | Print | Product List | Glossary On
Versions: 1 2 3 4 5 6 7 8 9 10 11 12 13 14 15 16 17 18 19 20 21 22
000
FTUS44 KTSA 060927 AAB
TAFFSM
TAF AMD
KFSM 060927Z 0609/0706 00000KT P6SM SCT008 OVC016
      TEMPO 0609/0610 4SM -RA BR BKN007
     FM061100 VRB04KT 4SM BR OVC012
     FM061600 33010KT P6SM BKN025
     FM061800 35010KT P6SM BKN250=

USA.gov is the U.S. government's official web portal to all federal, state and local government web resources and services.